Time;durP1;ratioP1;P1;durP2;ratioP2;P2;SDS_P1;SDS_P2;PMS_P1;PMS_P2;Temp;Humidity;BMP_temperature;BMP_pressure;BME280_temperature;BME280_humidity;BME280_pressure;Samples;Min_cycle;Max_cycle;Signal;HPM_P1;HPM_P2
2024/02/16 00:00:10;;;;;;;2.80;1.53;;;12.10;99.90;;;;;;5039841;28;20256;-58
2024/02/16 00:02:37;;;;;;;4.67;1.77;;;12.10;99.90;;;;;;5043049;28;20202;-58
2024/02/16 00:05:06;;;;;;;2.27;1.60;;;12.10;99.90;;;;;;5043171;28;20213;-58
2024/02/16 00:07:32;;;;;;;2.30;1.50;;;12.20;99.90;;;;;;5040601;28;20344;-58
2024/02/16 00:09:59;;;;;;;3.00;1.50;;;12.30;99.90;;;;;;5039621;28;20210;-57
2024/02/16 00:12:26;;;;;;;2.10;1.50;;;12.30;99.90;;;;;;5041479;28;20733;-58
2024/02/16 00:14:54;;;;;;;2.27;1.30;;;12.40;99.90;;;;;;5043978;28;20240;-58
2024/02/16 00:17:21;;;;;;;2.30;1.67;;;12.50;99.90;;;;;;5046114;28;20205;-58
2024/02/16 00:19:47;;;;;;;2.03;1.27;;;12.50;99.90;;;;;;5043437;28;20295;-58
2024/02/16 00:22:14;;;;;;;1.90;1.23;;;12.60;99.90;;;;;;5043709;28;20626;-58
2024/02/16 00:24:41;;;;;;;1.50;1.10;;;12.60;99.90;;;;;;5047146;28;20221;-58
2024/02/16 00:27:08;;;;;;;2.03;1.20;;;12.60;99.90;;;;;;5047264;28;20209;-58
2024/02/16 00:29:34;;;;;;;3.20;2.57;;;12.60;99.90;;;;;;5043900;28;20202;-58
2024/02/16 00:32:02;;;;;;;46.63;27.13;;;12.70;99.90;;;;;;5043542;28;20700;-58
2024/02/16 00:34:29;;;;;;;25.03;15.93;;;12.70;99.90;;;;;;5045432;28;20222;-60
2024/02/16 00:36:56;;;;;;;39.97;24.57;;;12.80;99.90;;;;;;5047035;28;20463;-58
2024/02/16 00:39:23;;;;;;;29.40;17.87;;;12.80;99.90;;;;;;5045305;28;20312;-60
2024/02/16 00:41:50;;;;;;;43.83;27.37;;;12.80;99.90;;;;;;5043524;28;20206;-58
2024/02/16 00:44:17;;;;;;;29.30;16.80;;;12.90;99.90;;;;;;5043547;28;20280;-57
2024/02/16 00:46:44;;;;;;;24.97;14.17;;;12.90;99.90;;;;;;5046736;28;20209;-58
2024/02/16 00:49:31;;;;;;;10.33;6.47;;;12.90;99.90;;;;;;5046321;28;20624;-57
2024/02/16 00:51:58;;;;;;;9.20;5.70;;;12.90;99.90;;;;;;5037486;28;20671;-58
2024/02/16 00:54:26;;;;;;;5.73;2.73;;;12.80;99.90;;;;;;5044353;28;20234;-58
2024/02/16 00:56:54;;;;;;;2.80;1.90;;;12.80;99.90;;;;;;5046518;28;20726;-57
2024/02/16 00:59:21;;;;;;;1.90;1.63;;;12.70;99.90;;;;;;5045088;28;20225;-58
2024/02/16 01:01:48;;;;;;;3.47;1.80;;;12.70;99.90;;;;;;5048011;28;20290;-58
2024/02/16 01:04:16;;;;;;;2.60;1.77;;;12.60;99.90;;;;;;5046369;28;20229;-57
2024/02/16 01:06:42;;;;;;;3.33;1.87;;;12.50;99.90;;;;;;5043101;28;20252;-58
2024/02/16 01:09:09;;;;;;;2.33;1.70;;;12.40;99.90;;;;;;5043087;28;20210;-57
2024/02/16 01:11:37;;;;;;;2.47;1.83;;;12.40;99.90;;;;;;5045971;28;20225;-57
2024/02/16 01:14:04;;;;;;;4.47;2.03;;;12.40;99.90;;;;;;5046060;28;20226;-58
2024/02/16 01:16:31;;;;;;;3.80;2.50;;;12.30;99.90;;;;;;5044000;28;20259;-58
2024/02/16 01:18:57;;;;;;;3.10;1.93;;;12.30;99.90;;;;;;5042803;28;20226;-60
2024/02/16 01:21:25;;;;;;;4.33;2.20;;;12.30;99.90;;;;;;5043629;28;20342;-58
2024/02/16 01:23:52;;;;;;;4.27;2.40;;;12.30;99.90;;;;;;5046020;28;20256;-60
2024/02/16 01:26:19;;;;;;;2.80;1.83;;;12.30;99.90;;;;;;5045201;28;20295;-57
2024/02/16 01:28:45;;;;;;;3.93;2.17;;;12.30;99.90;;;;;;5042814;28;20256;-58
2024/02/16 01:31:12;;;;;;;4.77;2.20;;;12.40;99.90;;;;;;5042402;28;20206;-58
2024/02/16 01:33:39;;;;;;;5.27;3.70;;;12.40;99.90;;;;;;5045842;28;20277;-58
2024/02/16 01:36:06;;;;;;;5.03;2.97;;;12.40;99.90;;;;;;5045671;28;20671;-58
2024/02/16 01:38:34;;;;;;;4.73;2.30;;;12.50;99.90;;;;;;5043148;28;20214;-58
2024/02/16 01:41:01;;;;;;;2.67;2.10;;;12.50;99.90;;;;;;5041968;28;20202;-58
2024/02/16 01:43:28;;;;;;;4.03;2.00;;;12.50;99.90;;;;;;5043893;28;20222;-58
2024/02/16 01:45:57;;;;;;;2.97;2.00;;;12.50;99.90;;;;;;5045720;28;20205;-58
2024/02/16 01:48:23;;;;;;;3.07;2.03;;;12.60;99.90;;;;;;5044386;28;20212;-57
2024/02/16 01:50:51;;;;;;;2.43;1.80;;;12.50;99.90;;;;;;5041942;28;20272;-58
2024/02/16 01:53:18;;;;;;;2.53;1.40;;;12.50;99.90;;;;;;5042159;28;20233;-57
2024/02/16 01:55:47;;;;;;;4.73;1.73;;;12.40;99.90;;;;;;5045381;28;20742;-60
2024/02/16 01:58:13;;;;;;;6.43;1.97;;;12.40;99.90;;;;;;5045244;28;20210;-57
2024/02/16 02:00:40;;;;;;;2.13;1.60;;;12.30;99.90;;;;;;5041776;28;20639;-58
2024/02/16 02:03:07;;;;;;;2.80;1.70;;;12.20;99.90;;;;;;5041778;28;20742;-60
2024/02/16 02:05:35;;;;;;;2.00;1.40;;;12.10;99.90;;;;;;5044115;28;20210;-60
2024/02/16 02:08:10;;;;;;;1.73;1.60;;;11.90;99.90;;;;;;5045109;28;20216;-60
2024/02/16 02:10:37;;;;;;;3.40;2.03;;;11.80;99.90;;;;;;5042109;28;20292;-60
2024/02/16 02:13:05;;;;;;;4.07;1.70;;;11.80;99.90;;;;;;5041619;28;20292;-60
2024/02/16 02:15:32;;;;;;;2.40;1.80;;;11.80;99.90;;;;;;5043773;28;20210;-60
2024/02/16 02:17:59;;;;;;;3.47;1.87;;;11.90;99.90;;;;;;5045030;28;20296;-58
2024/02/16 02:20:25;;;;;;;2.20;1.53;;;11.90;99.90;;;;;;5043250;28;20229;-58
2024/02/16 02:22:53;;;;;;;4.93;2.27;;;11.90;99.90;;;;;;5041635;28;20230;-60
2024/02/16 02:25:21;;;;;;;2.30;1.70;;;11.90;99.90;;;;;;5042087;28;20210;-60
2024/02/16 02:27:48;;;;;;;3.67;1.90;;;12.00;99.90;;;;;;5044963;28;20239;-58
2024/02/16 02:30:16;;;;;;;2.33;1.80;;;12.00;99.90;;;;;;5044440;28;20198;-58
2024/02/16 02:32:43;;;;;;;3.80;1.87;;;12.10;99.90;;;;;;5041151;28;20218;-60
2024/02/16 02:35:11;;;;;;;4.03;1.60;;;12.10;99.90;;;;;;5041081;28;20624;-58
2024/02/16 02:37:38;;;;;;;10.07;1.80;;;12.10;99.90;;;;;;5043440;28;20206;-58
2024/02/16 02:40:08;;;;;;;2.93;1.60;;;12.20;99.90;;;;;;5044086;28;20683;-58
2024/02/16 02:42:35;;;;;;;2.33;1.40;;;12.20;99.90;;;;;;5041924;28;20335;-57
2024/02/16 02:45:01;;;;;;;2.07;1.20;;;12.10;99.90;;;;;;5040970;28;20563;-60
2024/02/16 02:47:28;;;;;;;3.57;1.50;;;12.10;99.90;;;;;;5042363;28;20212;-58
2024/02/16 02:49:55;;;;;;;4.23;1.60;;;12.20;99.90;;;;;;5044520;28;20198;-60
2024/02/16 02:52:22;;;;;;;3.50;1.67;;;12.20;99.90;;;;;;5043768;28;20205;-60
2024/02/16 02:54:48;;;;;;;1.90;1.30;;;12.20;99.90;;;;;;5040854;28;20209;-57
2024/02/16 02:57:16;;;;;;;3.40;1.73;;;12.20;99.90;;;;;;5040845;28;20206;-58
2024/02/16 02:59:45;;;;;;;2.37;1.40;;;12.20;99.90;;;;;;5040400;28;20221;-60
2024/02/16 03:02:11;;;;;;;3.00;1.70;;;12.30;99.90;;;;;;5040665;28;20213;-58
2024/02/16 03:04:38;;;;;;;2.00;1.43;;;12.40;99.90;;;;;;5043447;28;20621;-60
2024/02/16 03:07:05;;;;;;;2.77;1.50;;;12.40;99.90;;;;;;5044230;28;20209;-58
2024/02/16 03:09:31;;;;;;;2.10;1.67;;;12.40;99.90;;;;;;5041953;28;20206;-58
2024/02/16 03:11:58;;;;;;;2.60;1.57;;;12.40;99.90;;;;;;5041002;28;20214;-58
2024/02/16 03:14:26;;;;;;;3.53;1.63;;;12.50;99.90;;;;;;5041267;28;20678;-58
2024/02/16 03:16:53;;;;;;;3.10;1.57;;;12.60;99.90;;;;;;5043738;28;20728;-58
2024/02/16 03:19:19;;;;;;;2.80;1.33;;;12.60;99.90;;;;;;5043414;28;20276;-58
2024/02/16 03:21:48;;;;;;;3.27;1.53;;;12.70;99.90;;;;;;5040406;28;20202;-58
2024/02/16 03:24:14;;;;;;;3.43;1.43;;;12.80;99.90;;;;;;5040382;28;20222;-58
2024/02/16 03:26:41;;;;;;;2.23;1.47;;;12.80;99.90;;;;;;5043340;28;20209;-57
2024/02/16 03:29:07;;;;;;;1.53;1.20;;;12.90;99.90;;;;;;5043641;28;20216;-58
2024/02/16 03:31:35;;;;;;;2.67;1.60;;;12.80;99.90;;;;;;5040975;28;20593;-58
2024/02/16 03:34:02;;;;;;;3.13;1.60;;;12.70;99.90;;;;;;5039980;28;20234;-58
2024/02/16 03:36:30;;;;;;;7.90;2.90;;;12.70;99.90;;;;;;5041562;28;20209;-58
2024/02/16 03:38:57;;;;;;;2.80;2.10;;;12.50;99.90;;;;;;5043595;28;20209;-58
2024/02/16 03:41:24;;;;;;;4.07;1.80;;;12.30;99.90;;;;;;5042478;28;20587;-58
2024/02/16 03:43:50;;;;;;;2.57;1.50;;;12.20;99.90;;;;;;5039919;28;20731;-58
2024/02/16 03:46:17;;;;;;;3.73;1.40;;;12.20;99.90;;;;;;5040270;28;20213;-58
2024/02/16 03:48:45;;;;;;;5.37;1.63;;;12.20;99.90;;;;;;5043356;28;20213;-58
2024/02/16 03:51:12;;;;;;;4.50;1.83;;;12.20;99.90;;;;;;5042602;28;20209;-58
2024/02/16 03:53:39;;;;;;;4.17;1.57;;;12.10;99.90;;;;;;5040686;28;20229;-58
2024/02/16 03:56:07;;;;;;;1.77;1.40;;;12.00;99.90;;;;;;5039957;28;20203;-58
2024/02/16 03:58:34;;;;;;;2.20;1.40;;;11.90;99.90;;;;;;5041533;28;20698;-58
2024/02/16 04:01:00;;;;;;;3.57;1.50;;;11.90;99.90;;;;;;5043107;28;20221;-58
2024/02/16 04:03:27;;;;;;;2.77;1.60;;;11.90;99.90;;;;;;5042057;28;20275;-59
2024/02/16 04:05:55;;;;;;;3.03;1.67;;;11.90;99.90;;;;;;5039981;28;20277;-58
2024/02/16 04:08:22;;;;;;;1.90;1.57;;;11.90;99.90;;;;;;5040007;28;20214;-58
2024/02/16 04:10:48;;;;;;;2.43;1.40;;;11.90;99.90;;;;;;5042794;28;20201;-58
2024/02/16 04:13:15;;;;;;;2.57;1.50;;;12.00;99.90;;;;;;5042916;28;20228;-58
2024/02/16 04:15:42;;;;;;;3.67;1.50;;;12.00;99.90;;;;;;5039922;28;20253;-58
2024/02/16 04:18:09;;;;;;;3.70;2.20;;;12.00;99.90;;;;;;5039755;28;20256;-58
2024/02/16 04:20:35;;;;;;;6.80;2.40;;;12.10;99.90;;;;;;5041414;28;20276;-58
2024/02/16 04:23:04;;;;;;;4.10;2.23;;;12.20;99.90;;;;;;5042955;28;20303;-58
2024/02/16 04:25:30;;;;;;;4.10;2.10;;;12.20;99.90;;;;;;5041437;28;20687;-59
2024/02/16 04:27:57;;;;;;;3.90;1.90;;;12.20;99.90;;;;;;5039530;28;20210;-58
2024/02/16 04:30:24;;;;;;;2.23;1.77;;;12.20;99.90;;;;;;5039835;28;20198;-58
2024/02/16 04:32:50;;;;;;;3.30;2.03;;;12.20;99.90;;;;;;5042996;28;20279;-58
2024/02/16 04:35:17;;;;;;;2.47;1.60;;;12.10;99.90;;;;;;5043045;28;20236;-58
2024/02/16 04:37:44;;;;;;;2.73;1.90;;;12.10;99.90;;;;;;5039700;28;20202;-58
2024/02/16 04:40:12;;;;;;;2.53;1.70;;;12.00;99.90;;;;;;5039070;28;20617;-58
2024/02/16 04:42:41;;;;;;;4.63;1.97;;;12.00;99.90;;;;;;5042146;28;20241;-58
2024/02/16 04:45:08;;;;;;;3.00;1.63;;;12.10;99.90;;;;;;5042567;28;20755;-59
2024/02/16 04:47:35;;;;;;;1.67;1.53;;;12.20;99.90;;;;;;5040695;28;20255;-58
2024/02/16 04:50:02;;;;;;;3.63;1.73;;;12.20;99.90;;;;;;5039138;28;20210;-58
2024/02/16 04:52:29;;;;;;;2.07;1.63;;;12.20;99.90;;;;;;5040005;28;20264;-58
2024/02/16 04:54:56;;;;;;;1.80;1.60;;;12.30;99.90;;;;;;5042822;28;20220;-58
2024/02/16 04:57:24;;;;;;;2.70;1.90;;;12.20;99.90;;;;;;5042545;28;20233;-59
2024/02/16 04:59:51;;;;;;;4.30;2.00;;;12.20;99.90;;;;;;5039073;28;20222;-59
2024/02/16 05:02:18;;;;;;;2.30;1.90;;;12.20;99.90;;;;;;5042094;28;20210;-58
2024/02/16 05:04:44;;;;;;;2.83;2.20;;;12.30;99.90;;;;;;5045996;28;20248;-58
2024/02/16 05:07:11;;;;;;;3.73;2.40;;;12.30;99.90;;;;;;5046245;28;20278;-58
2024/02/16 05:09:39;;;;;;;2.83;2.17;;;12.30;99.90;;;;;;5043644;28;20210;-58
2024/02/16 05:12:08;;;;;;;2.80;2.20;;;12.30;99.90;;;;;;5042712;28;20297;-58
2024/02/16 05:14:36;;;;;;;6.37;2.60;;;12.30;99.90;;;;;;5044442;28;20229;-59
2024/02/16 05:17:03;;;;;;;6.27;2.33;;;12.20;99.90;;;;;;5046069;28;20259;-59
2024/02/16 05:19:33;;;;;;;4.87;2.30;;;12.20;99.90;;;;;;5044700;28;20208;-59
2024/02/16 05:22:00;;;;;;;2.80;1.97;;;12.20;99.90;;;;;;5042552;28;20210;-59
2024/02/16 05:24:26;;;;;;;2.80;2.40;;;12.20;99.90;;;;;;5043197;28;20237;-58
2024/02/16 05:26:54;;;;;;;2.57;2.17;;;12.10;99.90;;;;;;5045937;28;20566;-58
2024/02/16 05:29:21;;;;;;;2.60;2.23;;;12.20;99.90;;;;;;5045801;28;20205;-58
2024/02/16 05:31:52;;;;;;;5.00;2.20;;;12.20;99.90;;;;;;5034239;28;20198;-59
2024/02/16 05:34:18;;;;;;;2.00;1.80;;;12.20;99.90;;;;;;5042703;28;20647;-58
2024/02/16 05:36:45;;;;;;;4.63;2.60;;;12.30;99.90;;;;;;5045533;28;20228;-58
2024/02/16 05:39:26;;;;;;;4.30;2.27;;;12.30;99.90;;;;;;5045821;28;20267;-58
2024/02/16 05:41:53;;;;;;;2.90;2.10;;;12.30;99.90;;;;;;5042325;28;20665;-58
2024/02/16 05:44:19;;;;;;;4.17;2.20;;;12.30;99.90;;;;;;5042146;28;20299;-58
2024/02/16 05:46:46;;;;;;;2.70;2.20;;;12.30;99.90;;;;;;5044983;28;20201;-58
2024/02/16 05:49:14;;;;;;;3.83;2.50;;;12.30;99.90;;;;;;5045677;28;20292;-58
2024/02/16 05:51:42;;;;;;;3.80;2.20;;;12.30;99.90;;;;;;5043106;28;20202;-58
2024/02/16 05:54:08;;;;;;;3.63;2.30;;;12.40;99.90;;;;;;5041922;28;20237;-58
2024/02/16 05:56:36;;;;;;;2.80;2.17;;;12.40;99.90;;;;;;5043653;28;20206;-58
2024/02/16 05:59:03;;;;;;;3.97;2.60;;;12.40;99.90;;;;;;5045413;28;20634;-58
2024/02/16 06:01:30;;;;;;;3.50;2.33;;;12.40;99.90;;;;;;5043770;28;20225;-58
2024/02/16 06:03:57;;;;;;;6.53;2.30;;;12.40;99.90;;;;;;5041655;28;20230;-59
2024/02/16 06:06:25;;;;;;;3.30;2.00;;;12.40;99.90;;;;;;5041698;28;20628;-58
2024/02/16 06:08:51;;;;;;;3.40;1.90;;;12.40;99.90;;;;;;5045214;28;20280;-58
2024/02/16 06:11:18;;;;;;;11.20;2.30;;;12.30;99.90;;;;;;5044821;28;20377;-58
2024/02/16 06:13:45;;;;;;;5.30;2.30;;;12.30;99.90;;;;;;5040874;28;20711;-58
2024/02/16 06:16:11;;;;;;;4.83;2.97;;;12.30;99.90;;;;;;5041793;28;20202;-58
2024/02/16 06:18:38;;;;;;;6.03;3.90;;;12.20;99.90;;;;;;5043466;28;20211;-59
2024/02/16 06:21:05;;;;;;;6.47;3.63;;;12.20;99.90;;;;;;5044735;28;20225;-58
2024/02/16 06:23:33;;;;;;;7.13;4.70;;;12.20;99.90;;;;;;5043569;28;20723;-59
2024/02/16 06:26:00;;;;;;;15.60;9.73;;;12.20;99.90;;;;;;5041569;28;20210;-58
2024/02/16 06:28:26;;;;;;;7.53;4.93;;;12.10;99.90;;;;;;5041618;28;20217;-59
2024/02/16 06:30:53;;;;;;;6.43;4.83;;;12.00;99.90;;;;;;5044592;28;20235;-58
2024/02/16 06:33:21;;;;;;;8.87;5.03;;;11.90;99.90;;;;;;5044801;28;20359;-58
2024/02/16 06:35:50;;;;;;;7.40;4.77;;;11.80;99.90;;;;;;5041458;28;20277;-58
2024/02/16 06:38:16;;;;;;;6.40;3.80;;;11.70;99.90;;;;;;5041237;28;20218;-58
2024/02/16 06:40:44;;;;;;;5.03;3.70;;;11.60;99.90;;;;;;5043306;28;20226;-59
2024/02/16 06:43:11;;;;;;;6.90;3.70;;;11.60;99.90;;;;;;5044234;28;20237;-58
2024/02/16 06:45:38;;;;;;;5.77;3.70;;;11.60;99.90;;;;;;5042798;28;20663;-58
2024/02/16 06:48:05;;;;;;;9.80;3.40;;;11.60;99.90;;;;;;5040766;28;20669;-59
2024/02/16 06:50:31;;;;;;;4.77;3.50;;;11.70;99.90;;;;;;5041580;28;20214;-58
2024/02/16 06:52:59;;;;;;;5.53;2.87;;;11.70;99.90;;;;;;5044109;28;20240;-59
2024/02/16 06:55:26;;;;;;;5.87;3.20;;;11.80;99.90;;;;;;5043975;28;20683;-59
2024/02/16 06:57:54;;;;;;;5.40;2.70;;;11.80;99.90;;;;;;5041025;28;20210;-59
2024/02/16 07:00:21;;;;;;;4.13;2.67;;;11.80;99.90;;;;;;5040433;28;20228;-58
2024/02/16 07:02:48;;;;;;;8.67;2.50;;;11.80;99.90;;;;;;5043734;28;20225;-59
2024/02/16 07:05:15;;;;;;;6.57;2.80;;;11.80;99.90;;;;;;5044264;28;20209;-59
2024/02/16 07:07:42;;;;;;;7.27;2.80;;;11.80;99.90;;;;;;5041676;28;20267;-59
2024/02/16 07:10:13;;;;;;;4.77;3.10;;;12.00;99.90;;;;;;5040301;28;20210;-59
2024/02/16 07:12:40;;;;;;;3.97;3.07;;;12.20;99.90;;;;;;5042530;28;20301;-59
2024/02/16 07:15:09;;;;;;;4.27;2.57;;;12.20;99.90;;;;;;5043736;28;20209;-59
2024/02/16 07:17:36;;;;;;;4.33;2.87;;;12.40;99.90;;;;;;5042197;28;20647;-60
2024/02/16 07:20:04;;;;;;;5.17;2.77;;;12.60;99.90;;;;;;5040204;28;20237;-59
2024/02/16 07:22:32;;;;;;;5.93;2.70;;;12.70;99.90;;;;;;5040693;28;20290;-59
2024/02/16 07:24:59;;;;;;;3.90;3.00;;;12.80;99.90;;;;;;5043433;28;20209;-59
2024/02/16 07:27:26;;;;;;;5.20;2.70;;;12.80;99.90;;;;;;5043427;28;20208;-59
2024/02/16 07:29:53;;;;;;;5.63;3.20;;;12.90;99.90;;;;;;5040045;28;20707;-59
2024/02/16 07:32:21;;;;;;;4.70;2.60;;;13.00;99.90;;;;;;5040167;28;20206;-59
2024/02/16 07:34:48;;;;;;;3.27;2.70;;;13.10;99.90;;;;;;5043056;28;20259;-59
2024/02/16 07:37:15;;;;;;;5.53;2.87;;;13.20;99.90;;;;;;5043296;28;20653;-59
2024/02/16 07:39:42;;;;;;;3.73;2.37;;;13.20;99.90;;;;;;5041067;28;20210;-59
2024/02/16 07:42:09;;;;;;;3.57;2.37;;;13.20;99.90;;;;;;5039854;28;20236;-59
2024/02/16 07:44:36;;;;;;;3.60;2.67;;;13.20;99.90;;;;;;5041206;28;20573;-59
2024/02/16 07:47:03;;;;;;;5.53;3.17;;;13.30;99.90;;;;;;5043253;28;20271;-59
2024/02/16 07:49:31;;;;;;;6.93;2.70;;;13.30;99.90;;;;;;5042454;28;20208;-59
2024/02/16 07:51:57;;;;;;;4.93;2.60;;;13.40;99.90;;;;;;5039813;28;20202;-59
2024/02/16 07:54:24;;;;;;;2.83;2.27;;;13.40;99.90;;;;;;5039714;28;20332;-59
2024/02/16 07:56:52;;;;;;;4.80;2.70;;;13.60;99.90;;;;;;5039989;28;20202;-58
2024/02/16 07:59:19;;;;;;;5.73;2.53;;;13.70;99.90;;;;;;5039524;28;20260;-56
2024/02/16 08:01:46;;;;;;;4.50;3.03;;;13.80;99.90;;;;;;5041939;28;20222;-62
2024/02/16 08:04:12;;;;;;;4.00;2.70;;;13.80;99.90;;;;;;5042893;28;20226;-60
2024/02/16 08:06:40;;;;;;;4.70;3.00;;;13.80;99.90;;;;;;5041188;28;20298;-58
2024/02/16 08:09:07;;;;;;;4.43;2.50;;;13.90;99.90;;;;;;5039890;28;20213;-58
2024/02/16 08:11:34;;;;;;;3.50;2.53;;;14.00;99.90;;;;;;5040187;28;20253;-58
2024/02/16 08:14:01;;;;;;;3.60;2.40;;;14.10;99.90;;;;;;5042977;28;20228;-56
2024/02/16 08:16:28;;;;;;;4.50;2.83;;;14.10;99.90;;;;;;5042935;28;20284;-58
2024/02/16 08:18:54;;;;;;;4.03;2.30;;;14.10;99.90;;;;;;5039530;28;20285;-57
2024/02/16 08:21:21;;;;;;;5.70;2.53;;;14.10;99.90;;;;;;5039503;28;20217;-58
2024/02/16 08:23:49;;;;;;;2.80;2.50;;;14.20;99.90;;;;;;5042215;28;20798;-57
2024/02/16 08:26:17;;;;;;;5.30;2.47;;;14.10;99.90;;;;;;5042906;28;20680;-57
2024/02/16 08:28:45;;;;;;;3.43;2.20;;;14.10;99.90;;;;;;5040627;28;20201;-57
2024/02/16 08:31:17;;;;;;;5.70;2.90;;;14.20;99.90;;;;;;5039135;28;20723;-58
2024/02/16 08:33:44;;;;;;;6.80;3.40;;;14.20;99.90;;;;;;5041878;28;20593;-57
2024/02/16 08:36:11;;;;;;;5.50;2.70;;;14.30;99.90;;;;;;5044038;28;20618;-57
2024/02/16 08:38:37;;;;;;;3.63;2.70;;;14.30;99.90;;;;;;5045441;28;20597;-58
2024/02/16 08:41:06;;;;;;;4.20;2.80;;;14.50;99.90;;;;;;5043118;28;20225;-56
2024/02/16 08:43:32;;;;;;;3.77;2.67;;;14.70;99.90;;;;;;5043882;28;20272;-57
2024/02/16 08:45:59;;;;;;;3.43;2.70;;;14.80;99.90;;;;;;5046699;28;20695;-57
2024/02/16 08:48:26;;;;;;;5.00;2.47;;;15.00;99.90;;;;;;5046643;28;20671;-58
2024/02/16 08:50:52;;;;;;;4.40;2.47;;;15.20;99.90;;;;;;5043085;28;20205;-57
2024/02/16 08:53:19;;;;;;;4.13;2.63;;;15.40;99.90;;;;;;5042988;28;20603;-58
2024/02/16 08:55:45;;;;;;;4.90;2.20;;;15.50;99.90;;;;;;5045360;28;20206;-62
2024/02/16 08:58:13;;;;;;;3.38;2.30;;;15.60;99.90;;;;;;5046218;28;20663;-60
2024/02/16 09:00:40;;;;;;;3.20;2.15;;;15.70;99.90;;;;;;5044201;28;20694;-58
2024/02/16 09:03:08;;;;;;;5.43;2.47;;;15.70;99.90;;;;;;5043020;28;20222;-58
2024/02/16 09:05:35;;;;;;;7.32;2.53;;;15.80;99.90;;;;;;5044027;28;20213;-58
2024/02/16 09:08:03;;;;;;;7.90;2.40;;;15.80;99.90;;;;;;5046597;28;20205;-58
2024/02/16 09:10:29;;;;;;;2.63;1.98;;;16.00;99.90;;;;;;5045877;28;20201;-59
2024/02/16 09:12:56;;;;;;;4.85;2.20;;;16.20;99.90;;;;;;5042615;28;20214;-59
2024/02/16 09:15:24;;;;;;;3.90;2.45;;;16.40;99.90;;;;;;5042634;28;20214;-59
2024/02/16 09:17:50;;;;;;;5.07;2.22;;;16.70;99.90;;;;;;5045729;28;20293;-59
2024/02/16 09:20:22;;;;;;;3.33;2.25;;;16.90;99.90;;;;;;5046317;28;20251;-59
2024/02/16 09:22:49;;;;;;;4.20;2.20;;;17.10;99.90;;;;;;5043065;28;20229;-59
2024/02/16 09:25:16;;;;;;;7.15;2.78;;;17.40;99.90;;;;;;5042456;28;20208;-59
2024/02/16 09:27:44;;;;;;;4.63;1.90;;;17.80;99.90;;;;;;5043915;28;20198;-59
2024/02/16 09:30:12;;;;;;;2.80;2.30;;;18.20;99.90;;;;;;5045736;28;20313;-59
2024/02/16 09:32:41;;;;;;;3.28;2.38;;;18.60;99.90;;;;;;5044407;28;20202;-59
2024/02/16 09:35:08;;;;;;;4.97;2.88;;;18.80;99.90;;;;;;5042455;28;20207;-59
2024/02/16 09:37:36;;;;;;;8.32;2.42;;;18.90;99.90;;;;;;5042949;28;20206;-59
2024/02/16 09:40:04;;;;;;;4.65;2.20;;;19.30;99.90;;;;;;5045468;28;20228;-59
2024/02/16 09:42:31;;;;;;;5.65;1.95;;;19.60;99.90;;;;;;5045316;28;20573;-61
2024/02/16 09:44:58;;;;;;;4.50;2.10;;;19.80;99.90;;;;;;5042354;28;20214;-59
2024/02/16 09:47:28;;;;;;;11.23;2.10;;;19.80;99.90;;;;;;5040837;28;20202;-60
2024/02/16 09:49:56;;;;;;;2.83;1.90;;;19.90;99.90;;;;;;5045251;28;20292;-60
2024/02/16 09:52:24;;;;;;;3.58;1.90;;;20.10;99.90;;;;;;5045466;28;20198;-59
2024/02/16 09:54:51;;;;;;;4.10;1.70;;;20.30;99.90;;;;;;5091865;22;20236;-55
2024/02/16 09:57:18;;;;;;;4.20;2.00;;;20.40;99.90;;;;;;5073961;28;20205;-55
2024/02/16 09:59:45;;;;;;;2.20;1.55;;;20.40;99.90;;;;;;5073461;28;20284;-55
2024/02/16 10:02:12;;;;;;;4.15;1.70;;;20.50;99.90;;;;;;5073559;28;20223;-54
2024/02/16 10:04:38;;;;;;;2.85;2.00;;;20.70;99.90;;;;;;5065384;28;20229;-55
2024/02/16 10:07:06;;;;;;;5.80;1.95;;;20.90;99.90;;;;;;5065187;28;20204;-56
2024/02/16 10:09:33;;;;;;;5.22;2.03;;;21.10;99.90;;;;;;5064528;28;20205;-55
2024/02/16 10:12:00;;;;;;;2.78;1.70;;;21.10;99.90;;;;;;5062295;28;20198;-55
2024/02/16 10:14:28;;;;;;;4.00;1.95;;;21.10;99.90;;;;;;5061810;28;20229;-55
2024/02/16 10:17:02;;;;;;;4.13;2.15;;;21.10;99.90;;;;;;5064987;28;20204;-54
2024/02/16 10:19:36;;;;;;;4.15;2.40;;;21.00;99.90;;;;;;5064863;28;20215;-55
2024/02/16 10:22:08;;;;;;;4.07;2.17;;;21.00;99.90;;;;;;5054329;28;20714;-53
2024/02/16 10:24:38;;;;;;;3.83;2.10;;;20.90;99.90;;;;;;5061968;28;20258;-55
2024/02/16 10:27:05;;;;;;;6.95;2.50;;;20.80;99.90;;;;;;5064987;28;20205;-54
2024/02/16 10:29:33;;;;;;;4.28;2.20;;;20.70;99.90;;;;;;5056134;28;20584;-54
2024/02/16 10:32:00;;;;;;;4.30;2.33;;;20.60;99.90;;;;;;5064742;28;20193;-55
2024/02/16 10:34:29;;;;;;;3.03;2.28;;;20.60;99.90;;;;;;5064644;28;20225;-55
2024/02/16 10:36:56;;;;;;;5.05;2.38;;;20.60;99.90;;;;;;5061381;28;20236;-54
2024/02/16 10:39:24;;;;;;;7.18;4.68;;;20.60;99.90;;;;;;5061139;28;20260;-53
2024/02/16 10:41:52;;;;;;;2.65;2.33;;;20.60;99.90;;;;;;5063532;28;20585;-56
2024/02/16 10:44:19;;;;;;;4.05;2.58;;;20.50;99.90;;;;;;5064284;28;20710;-53
2024/02/16 10:46:46;;;;;;;4.97;2.08;;;20.60;99.90;;;;;;5062190;28;20670;-54
2024/02/16 10:49:13;;;;;;;5.38;2.42;;;20.60;99.90;;;;;;5061173;28;20209;-53
2024/02/16 10:51:42;;;;;;;4.40;2.33;;;20.50;99.90;;;;;;5062102;28;20216;-54
2024/02/16 10:54:10;;;;;;;5.20;2.30;;;20.50;99.90;;;;;;5064173;28;20235;-53
2024/02/16 10:56:40;;;;;;;2.03;1.83;;;20.60;99.90;;;;;;5063597;28;20212;-54
2024/02/16 10:59:10;;;;;;;4.85;2.53;;;20.70;99.90;;;;;;5060469;28;20209;-54
2024/02/16 11:01:40;;;;;;;4.90;2.47;;;20.70;99.90;;;;;;5060872;28;20228;-55
2024/02/16 11:04:09;;;;;;;3.67;2.08;;;20.80;99.90;;;;;;5067826;28;20225;-54
2024/02/16 11:06:46;;;;;;;3.83;2.10;;;20.80;99.90;;;;;;5061005;28;20292;-55
2024/02/16 11:09:24;;;;;;;3.35;2.10;;;20.90;99.90;;;;;;5064268;28;20744;-55
2024/02/16 11:11:54;;;;;;;5.68;2.22;;;20.70;99.90;;;;;;5061324;28;20197;-56
2024/02/16 11:14:23;;;;;;;2.58;1.95;;;20.90;99.90;;;;;;5060991;28;20312;-55
2024/02/16 11:16:50;;;;;;;5.70;2.08;;;20.70;99.90;;;;;;5063146;28;20205;-55
2024/02/16 11:19:19;;;;;;;5.00;3.65;;;20.60;99.90;;;;;;5063622;28;20201;-54
2024/02/16 11:21:57;;;;;;;3.92;2.40;;;20.80;99.90;;;;;;5061936;28;20229;-54
2024/02/16 11:24:30;;;;;;;4.63;2.40;;;21.20;99.90;;;;;;5060398;28;20225;-55
2024/02/16 11:26:58;;;;;;;5.45;2.65;;;21.50;99.90;;;;;;5063439;28;20711;-55
2024/02/16 11:29:26;;;;;;;5.20;2.20;;;21.60;99.90;;;;;;5063457;28;20641;-56
2024/02/16 11:31:54;;;;;;;13.75;11.05;;;21.70;99.90;;;;;;5063578;28;20474;-56
2024/02/16 11:34:25;;;;;;;4.65;2.58;;;21.80;99.90;;;;;;5063359;28;20248;-56
2024/02/16 11:36:54;;;;;;;3.40;2.28;;;21.90;99.90;;;;;;5060925;28;20212;-55
2024/02/16 11:39:21;;;;;;;4.25;2.20;;;21.90;99.90;;;;;;5060102;28;20284;-55
2024/02/16 11:41:47;;;;;;;4.13;2.28;;;21.70;99.90;;;;;;5062113;28;20282;-54
2024/02/16 11:44:17;;;;;;;6.55;3.78;;;21.50;99.90;;;;;;5063524;28;20686;-55
2024/02/16 11:46:43;;;;;;;5.88;2.55;;;21.50;99.90;;;;;;5061989;28;20205;-55
2024/02/16 11:49:11;;;;;;;4.05;2.08;;;21.40;99.90;;;;;;5059972;28;20575;-55
2024/02/16 11:51:39;;;;;;;3.85;1.95;;;21.20;99.90;;;;;;5060252;28;20712;-56
2024/02/16 11:54:06;;;;;;;4.07;1.88;;;20.90;99.90;;;;;;5063452;28;20228;-54
2024/02/16 11:56:33;;;;;;;5.13;2.15;;;20.60;99.90;;;;;;5063739;28;20216;-53
2024/02/16 11:58:59;;;;;;;4.53;2.10;;;20.50;99.90;;;;;;5052213;28;20251;-56
2024/02/16 12:01:28;;;;;;;3.97;1.98;;;20.30;99.90;;;;;;5059996;28;20201;-56
2024/02/16 12:03:54;;;;;;;3.85;1.95;;;20.20;99.90;;;;;;5063053;28;20236;-58
2024/02/16 12:06:22;;;;;;;5.35;1.90;;;20.30;99.90;;;;;;5057373;28;20217;-60
2024/02/16 12:08:50;;;;;;;4.32;1.85;;;20.30;99.90;;;;;;5062094;28;20239;-61
2024/02/16 12:11:17;;;;;;;3.00;1.80;;;20.50;99.90;;;;;;5059035;28;20197;-61
2024/02/16 12:13:45;;;;;;;6.60;2.00;;;20.70;99.90;;;;;;5060887;28;20225;-59
2024/02/16 12:16:12;;;;;;;7.18;2.17;;;20.60;99.90;;;;;;5064138;28;20670;-65
2024/02/16 12:18:40;;;;;;;4.88;2.10;;;20.50;99.90;;;;;;5057535;28;20213;-64
2024/02/16 12:21:09;;;;;;;3.47;1.90;;;20.60;99.90;;;;;;5055388;28;20295;-61
2024/02/16 12:23:37;;;;;;;4.75;2.05;;;20.30;99.90;;;;;;5062483;28;20763;-61
2024/02/16 12:26:05;;;;;;;3.92;2.00;;;20.10;99.90;;;;;;5060321;28;20205;-60
2024/02/16 12:28:32;;;;;;;3.38;1.73;;;20.30;99.90;;;;;;5059683;28;20292;-60
2024/02/16 12:31:00;;;;;;;4.55;2.10;;;20.60;99.90;;;;;;5062344;28;20196;-61
2024/02/16 12:33:27;;;;;;;4.78;1.90;;;20.50;99.90;;;;;;5062868;28;20219;-59
2024/02/16 12:35:55;;;;;;;3.63;1.50;;;20.40;99.90;;;;;;5054722;28;20212;-59
2024/02/16 12:38:21;;;;;;;2.97;1.50;;;20.30;99.90;;;;;;5063035;28;20205;-60
2024/02/16 12:40:48;;;;;;;5.18;1.70;;;20.40;99.90;;;;;;5060560;28;20589;-60
2024/02/16 12:43:15;;;;;;;3.97;1.58;;;20.60;99.90;;;;;;5059197;28;20607;-61
2024/02/16 12:45:42;;;;;;;2.75;1.80;;;20.80;99.90;;;;;;5059839;28;20198;-60